Portada
METAR-TAF:

METAR-TAF

Aeropuertos :

Aeropuerto Internacional de Harbin

Harbin, China

latitud: 45-45N, longitud: 126-46E, altitud: 143 m

Observación

El informe se hizo hace 36 minutos, a las 16:00 UTC
Viento 4 kt del suroeste
Temperatura -17°C
Humedad 92%
Presión 1020 hPa
Visibilidad: 4000 m
neblina

METAR: ZYHB 111600Z 23002MPS 4000 BR NSC M17/M18 Q1020 NOSIG

Hora: 00:36 (16:36 UTC)

Pronóstico

El informe se hizo hace 7 horas y 35 minutos, a las 09:01 UTC
Pronóstico válido del 11 a las 12 UTC al 12 a las 12 UTC
Viento 8 kt del oeste
Visibilidad: 6000 m
Nubes dispersas a una altura de 2300 ft

TAF: ZYHB 110901Z 1112/1212 28004MPS 6000 SCT023 TXM07/06Z TNM15/22Z

Observaciones y pronósticos meteorológicos de más de 4000 aeropuertos (mensajes METAR y TAF).

Los puntos amarillos y rojos representan las estaciones disponibles.

Ponga el ratón en el punto deseado para ver el nombre de la estación.

Haga clic para ver las observaciones y los pronósticos meteorológicos.

Para cambiar el mapa : haga clic en los botones verdes con una cruz de color negro para hacer un zoom, en el botón verde con un guión para alejar o en las flechas verdes para mapas adyacentes.


METAR-TAF: